Time;durP1;ratioP1;P1;durP2;ratioP2;P2;SDS_P1;SDS_P2;PMS_P1;PMS_P2;Temp;Humidity;BMP_temperature;BMP_pressure;BME280_temperature;BME280_humidity;BME280_pressure;Samples;Min_cycle;Max_cycle;Signal;HPM_P1;HPM_P2
2021/06/06 00:00:02;;;;;;;98.68;49.22;;;18.50;91.10;;;17.41;86.66;101191.22;4988750;28;20043;-81
2021/06/06 00:02:39;;;;;;;105.97;51.65;;;18.50;90.90;;;17.37;86.93;101192.72;4989154;28;20050;-80
2021/06/06 00:05:19;;;;;;;100.22;50.60;;;18.40;91.10;;;17.38;87.06;101180.63;4988909;28;20089;-81
2021/06/06 00:07:57;;;;;;;103.60;50.00;;;18.40;91.10;;;17.38;87.02;101188.88;4988984;28;20864;-81
2021/06/06 00:10:34;;;;;;;105.03;53.05;;;18.40;91.10;;;17.40;86.79;101195.03;4988710;28;20049;-81
2021/06/06 00:13:12;;;;;;;92.75;46.58;;;18.40;91.10;;;17.39;86.77;101188.69;4989138;28;20471;-80
2021/06/06 00:15:50;;;;;;;84.18;44.22;;;18.40;91.10;;;17.36;86.67;101193.75;4988992;28;20046;-81
2021/06/06 00:18:26;;;;;;;82.10;43.97;;;18.40;91.10;;;17.35;86.84;101192.09;4992862;28;20050;-80
2021/06/06 00:21:02;;;;;;;89.60;44.72;;;18.30;91.10;;;17.36;86.64;101196.50;4992615;28;20066;-81
2021/06/06 00:23:40;;;;;;;85.60;44.72;;;18.30;91.10;;;17.33;86.78;101196.97;4992872;28;20525;-80
2021/06/06 00:26:29;;;;;;;89.32;46.70;;;18.30;91.20;;;17.31;86.95;101199.91;4992861;28;20522;-80
2021/06/06 00:29:04;;;;;;;92.47;47.85;;;18.30;91.30;;;17.31;86.93;101207.34;4992570;28;20506;-81
2021/06/06 00:31:42;;;;;;;97.90;50.13;;;18.30;91.20;;;17.32;86.87;101206.25;4992476;28;20069;-80
2021/06/06 00:34:21;;;;;;;95.68;49.08;;;18.30;91.40;;;17.30;87.03;101205.63;4991167;28;20046;-81
2021/06/06 00:36:58;;;;;;;99.60;48.30;;;18.30;91.40;;;17.29;87.23;101212.19;5019978;22;20050;-83
2021/06/06 00:39:36;;;;;;;88.78;47.72;;;18.30;91.50;;;17.27;86.99;101209.66;5010230;28;20049;-83
2021/06/06 00:42:14;;;;;;;85.25;45.35;;;18.20;91.40;;;17.29;87.23;101203.94;5010969;28;20078;-83
2021/06/06 00:44:48;;;;;;;78.90;41.90;;;18.20;91.40;;;17.29;87.03;101204.78;5010930;28;20477;-83
2021/06/06 00:47:18;;;;;;;69.63;38.15;;;18.20;91.40;;;17.27;86.59;101212.41;5010791;28;20046;-83
2021/06/06 00:49:57;;;;;;;70.07;39.25;;;18.20;91.20;;;17.24;86.44;101211.97;5010432;28;20078;-82
2021/06/06 00:52:37;;;;;;;76.80;40.05;;;18.20;91.20;;;17.24;86.95;101211.97;5010737;28;20068;-82
2021/06/06 00:55:19;;;;;;;69.90;39.03;;;18.20;91.40;;;17.23;86.86;101211.16;5010830;28;20747;-83
2021/06/06 00:57:57;;;;;;;74.23;40.50;;;18.20;91.30;;;17.22;86.70;101212.19;5012136;28;20085;-82
2021/06/06 01:00:41;;;;;;;72.32;38.90;;;18.20;91.20;;;17.20;86.60;101219.81;5010484;28;20627;-83
2021/06/06 01:03:22;;;;;;;77.95;38.58;;;18.20;91.10;;;17.17;86.47;101212.84;5010698;28;20046;-83
2021/06/06 01:06:11;;;;;;;75.75;40.03;;;18.10;91.00;;;17.16;86.60;101215.78;5010571;28;20053;-83
2021/06/06 01:08:53;;;;;;;76.20;39.20;;;18.10;91.20;;;17.16;86.61;101216.63;5019000;28;20060;-83
2021/06/06 01:11:41;;;;;;;77.97;40.25;;;18.10;91.00;;;17.14;86.43;101213.25;5029854;28;20513;-83
2021/06/06 01:14:27;;;;;;;74.90;39.55;;;18.10;91.10;;;17.11;86.35;101205.41;5030086;28;20168;-83
2021/06/06 01:17:14;;;;;;;74.50;39.97;;;18.10;91.10;;;17.11;86.54;101212.81;5031315;28;20080;-82
2021/06/06 01:19:59;;;;;;;74.20;39.30;;;18.10;91.20;;;17.09;86.46;101215.78;5029668;28;20767;-82
2021/06/06 01:22:53;;;;;;;70.78;38.63;;;18.10;91.20;;;17.07;86.67;101217.88;5030021;28;20132;-82
2021/06/06 01:25:47;;;;;;;66.95;36.65;;;18.00;91.20;;;17.06;86.52;101213.47;5031213;28;20041;-82
2021/06/06 01:28:34;;;;;;;74.47;38.25;;;18.00;91.10;;;17.07;86.72;101217.06;5028681;28;20049;-83
2021/06/06 01:31:15;;;;;;;66.93;38.00;;;18.00;91.20;;;17.08;86.39;101221.50;5029555;28;20136;-83
2021/06/06 01:34:00;;;;;;;66.53;37.03;;;18.00;91.20;;;17.07;86.27;101217.06;5029650;28;20096;-82
2021/06/06 01:36:45;;;;;;;71.55;37.47;;;18.00;91.30;;;17.04;86.37;101210.09;5029590;28;20045;-83
2021/06/06 01:39:28;;;;;;;72.13;37.92;;;18.00;91.20;;;17.02;86.41;101214.94;5029549;28;20049;-83
2021/06/06 01:42:10;;;;;;;67.28;36.60;;;18.00;91.30;;;17.00;86.48;101217.03;5030918;28;20041;-83
2021/06/06 01:44:51;;;;;;;69.75;36.25;;;18.00;91.40;;;16.99;86.70;101204.34;5030908;28;20049;-82
2021/06/06 01:47:32;;;;;;;71.13;37.30;;;17.90;91.30;;;17.01;86.52;101202.25;5030718;28;20048;-83
2021/06/06 01:50:20;;;;;;;69.60;36.72;;;17.90;91.30;;;16.99;86.66;101204.34;5028971;28;20053;-83
2021/06/06 01:52:56;;;;;;;68.28;36.72;;;17.90;91.30;;;16.97;86.36;101204.56;5030803;28;20048;-82
2021/06/06 01:55:39;;;;;;;65.82;35.55;;;17.90;91.40;;;16.96;86.49;101202.00;5029298;28;20086;-83
2021/06/06 01:58:21;;;;;;;71.53;38.22;;;17.90;91.40;;;16.94;86.29;101206.88;5029521;28;20045;-83
2021/06/06 02:01:10;;;;;;;73.45;37.10;;;17.90;91.30;;;16.95;86.56;101203.09;5028955;28;20057;-82
2021/06/06 02:03:52;;;;;;;65.43;36.38;;;17.90;91.40;;;16.92;86.38;101206.25;5030612;28;20107;-83
2021/06/06 02:06:37;;;;;;;62.13;35.72;;;17.90;91.40;;;16.91;86.11;101201.81;5045459;28;20048;-82
2021/06/06 02:09:23;;;;;;;63.92;36.95;;;17.90;91.20;;;16.92;86.13;101195.25;5029004;28;20050;-82
2021/06/06 02:12:13;;;;;;;64.03;36.33;;;17.90;91.20;;;16.89;86.04;101198.44;5029260;28;20057;-82
2021/06/06 02:15:01;;;;;;;63.75;35.42;;;17.80;91.00;;;16.91;86.22;101196.31;5028662;28;20107;-82
2021/06/06 02:17:43;;;;;;;61.75;34.63;;;17.80;91.10;;;16.90;85.82;101200.94;5028006;28;20584;-83
2021/06/06 02:20:43;;;;;;;57.03;33.13;;;17.80;90.90;;;16.92;85.48;101198.00;5028474;28;20140;-83
2021/06/06 02:23:18;;;;;;;54.60;31.35;;;17.80;90.90;;;16.87;85.45;101201.38;5028684;28;20064;-83
2021/06/06 02:25:59;;;;;;;57.40;31.42;;;17.80;90.90;;;16.89;85.51;101206.69;5028409;28;20119;-83
2021/06/06 02:28:44;;;;;;;52.20;30.63;;;17.80;90.80;;;16.89;85.28;101203.94;5028854;28;20049;-83
2021/06/06 02:31:39;;;;;;;52.75;30.88;;;17.80;90.80;;;16.88;85.38;101202.22;5028460;28;20038;-83
2021/06/06 02:34:19;;;;;;;51.28;31.35;;;17.80;90.80;;;16.86;85.34;101204.34;5028670;28;20049;-83
2021/06/06 02:37:04;;;;;;;53.35;30.73;;;17.70;90.60;;;16.87;85.01;101206.00;5029924;28;20095;-83
2021/06/06 02:39:46;;;;;;;49.83;30.63;;;17.80;90.60;;;16.86;85.11;101194.19;5027883;28;20064;-83
2021/06/06 02:42:24;;;;;;;50.42;30.00;;;17.80;90.80;;;16.87;84.99;101206.00;5029789;28;20046;-83
2021/06/06 02:45:03;;;;;;;53.15;29.73;;;17.80;90.80;;;16.85;85.09;101197.13;5028428;28;20840;-83
2021/06/06 02:47:47;;;;;;;47.05;28.38;;;17.80;90.70;;;16.84;85.06;101199.03;5028210;28;20054;-82
2021/06/06 02:50:35;;;;;;;46.08;28.17;;;17.80;90.80;;;16.84;85.01;101196.28;5028068;28;20107;-83
2021/06/06 02:53:21;;;;;;;46.35;28.23;;;17.80;90.70;;;16.81;85.11;101205.78;5028208;28;20053;-82
2021/06/06 02:55:59;;;;;;;50.17;29.48;;;17.70;90.70;;;16.81;85.22;101200.28;5029477;28;20038;-83
2021/06/06 02:58:42;;;;;;;45.88;27.90;;;17.80;90.80;;;16.79;85.38;101196.91;5028155;28;20052;-83
2021/06/06 03:01:23;;;;;;;41.70;26.42;;;17.70;90.80;;;16.79;85.70;101198.78;5027784;28;20057;-83
2021/06/06 03:04:08;;;;;;;43.45;26.15;;;17.80;90.80;;;16.76;85.29;101200.06;5028076;28;20529;-83
2021/06/06 03:06:53;;;;;;;41.35;25.15;;;17.70;90.80;;;16.75;85.08;101203.88;5024723;28;20060;-83
2021/06/06 03:09:30;;;;;;;42.40;23.77;;;17.70;90.70;;;16.78;85.31;101199.84;5027639;28;20140;-83
2021/06/06 03:12:16;;;;;;;44.38;24.05;;;17.70;90.60;;;16.77;85.00;101200.91;5029395;28;20033;-83
2021/06/06 03:14:59;;;;;;;37.72;22.73;;;17.70;90.50;;;16.76;85.23;101202.81;5027875;28;20536;-83
2021/06/06 03:17:45;;;;;;;38.22;22.40;;;17.70;90.50;;;16.77;85.08;101204.50;5029185;28;20064;-83
2021/06/06 03:20:41;;;;;;;36.50;22.40;;;17.70;90.70;;;16.76;85.20;101200.06;5027696;28;20557;-83
2021/06/06 03:23:22;;;;;;;38.65;22.17;;;17.70;90.80;;;16.78;84.68;101214.44;5028164;28;20060;-83
2021/06/06 03:26:04;;;;;;;38.95;22.83;;;17.70;90.50;;;16.76;85.21;101210.22;5027565;28;20075;-82
2021/06/06 03:28:46;;;;;;;37.85;22.95;;;17.70;90.60;;;16.75;84.89;101209.38;5028919;28;20048;-82
2021/06/06 03:31:30;;;;;;;38.92;22.58;;;17.70;90.40;;;16.74;84.86;101204.09;5027155;28;20107;-83
2021/06/06 03:34:10;;;;;;;38.25;21.98;;;17.70;90.60;;;16.74;84.85;101210.41;5027502;28;20477;-83
2021/06/06 03:36:52;;;;;;;35.38;21.75;;;17.70;90.50;;;16.73;85.07;101211.47;5027158;28;20056;-83
2021/06/06 03:39:43;;;;;;;39.90;23.13;;;17.70;90.60;;;16.72;85.01;101208.94;5028742;28;20051;-83
2021/06/06 03:42:25;;;;;;;37.67;23.35;;;17.70;90.60;;;16.70;85.05;101211.06;5027469;28;20049;-83
2021/06/06 03:45:01;;;;;;;41.75;24.25;;;17.70;90.70;;;16.73;84.66;101207.88;5027385;28;20052;-83
2021/06/06 03:47:36;;;;;;;42.63;24.80;;;17.70;90.40;;;16.73;84.90;101196.88;5028971;28;20053;-83
2021/06/06 03:50:15;;;;;;;41.63;24.15;;;17.60;90.20;;;16.71;84.87;101199.81;5028351;28;20179;-83
2021/06/06 03:52:57;;;;;;;41.45;24.05;;;17.60;90.40;;;16.70;85.36;101200.06;5027039;28;20116;-83
2021/06/06 03:55:36;;;;;;;44.67;24.63;;;17.70;90.80;;;16.67;85.61;101201.31;5027346;28;20536;-83
2021/06/06 03:58:21;;;;;;;38.10;23.67;;;17.60;90.70;;;16.66;85.74;101196.88;5028647;28;20114;-83
2021/06/06 04:00:56;;;;;;;40.28;24.55;;;17.60;90.60;;;16.70;85.56;101208.31;5026790;28;20050;-83
2021/06/06 04:03:33;;;;;;;40.75;23.40;;;17.60;90.70;;;16.68;85.36;101192.03;5027010;28;20053;-83
2021/06/06 04:06:13;;;;;;;34.40;21.13;;;17.60;90.60;;;16.67;85.57;101201.31;5028237;28;20045;-83
2021/06/06 04:08:56;;;;;;;36.47;22.10;;;17.70;90.80;;;16.68;85.51;101203.00;5026909;28;20053;-82
2021/06/06 04:11:29;;;;;;;;;;;17.60;90.60;;;16.68;85.38;101203.00;5027048;28;20053;-83
2021/06/06 04:14:19;;;;;;;36.78;21.92;;;17.60;90.70;;;16.71;85.18;101201.75;5026926;28;19936;-83
2021/06/06 04:17:03;;;;;;;37.05;21.15;;;17.60;90.60;;;16.72;84.90;101197.94;5026945;28;20057;-83
2021/06/06 04:19:38;;;;;;;33.40;20.52;;;17.60;90.40;;;16.69;84.62;101196.44;5026888;28;20049;-83
2021/06/06 04:22:13;;;;;;;32.45;19.27;;;17.60;90.10;;;16.69;84.87;101190.09;5028538;28;20049;-83
2021/06/06 04:24:53;;;;;;;33.25;20.15;;;17.60;90.20;;;16.69;84.53;101193.69;5027005;28;20053;-82
2021/06/06 04:27:33;;;;;;;26.70;17.20;;;17.60;90.00;;;16.68;84.45;101194.75;5026985;28;20081;-83
2021/06/06 04:30:15;;;;;;;34.80;19.27;;;17.60;90.00;;;16.67;84.50;101189.47;5026513;28;20340;-83
2021/06/06 04:32:48;;;;;;;34.08;19.45;;;17.60;90.20;;;16.65;84.79;101186.94;5028321;28;20159;-83
2021/06/06 04:35:26;;;;;;;35.35;18.60;;;17.60;90.20;;;16.65;84.90;101203.41;5028101;28;20099;-83
2021/06/06 04:38:03;;;;;;;29.70;18.75;;;17.50;90.20;;;16.64;84.72;101196.25;5026905;28;20136;-83
2021/06/06 04:40:49;;;;;;;31.23;18.60;;;17.60;90.20;;;16.63;84.70;101199.19;5026561;28;20045;-83
2021/06/06 04:43:35;;;;;;;31.40;18.33;;;17.60;90.20;;;16.62;85.05;101201.09;5028149;28;20052;-83
2021/06/06 04:46:15;;;;;;;31.13;18.00;;;17.60;90.40;;;16.64;85.09;101201.75;5026593;28;20080;-83
2021/06/06 04:48:56;;;;;;;31.00;18.20;;;17.60;90.40;;;16.64;85.10;101190.75;5028069;28;20129;-83
2021/06/06 04:51:37;;;;;;;31.80;17.92;;;17.60;90.50;;;16.65;84.79;101197.91;5026426;28;20054;-83
2021/06/06 04:54:26;;;;;;;28.50;18.50;;;17.60;90.20;;;16.65;85.08;101199.81;5028259;28;20043;-83
2021/06/06 04:56:59;;;;;;;31.27;19.65;;;17.60;90.30;;;16.63;85.32;101200.03;5028085;28;20044;-82
2021/06/06 04:59:40;;;;;;;28.35;17.60;;;17.60;90.60;;;16.65;85.45;101202.56;5026380;28;20048;-83
2021/06/06 05:02:22;;;;;;;29.10;17.90;;;17.60;90.70;;;16.63;85.60;101200.03;5027410;28;20057;-83
2021/06/06 05:05:07;;;;;;;30.65;18.30;;;17.60;90.70;;;16.62;85.84;101198.34;5030234;28;20160;-82
2021/06/06 05:07:53;;;;;;;30.48;18.80;;;17.60;90.80;;;16.61;86.12;101205.72;5030422;28;20128;-83
2021/06/06 05:10:32;;;;;;;32.08;18.67;;;17.60;90.90;;;16.62;86.09;101214.84;5029833;28;20056;-81
2021/06/06 05:13:08;;;;;;;30.00;18.13;;;17.60;91.00;;;16.61;86.06;101207.63;5030223;28;20053;-76
2021/06/06 05:15:44;;;;;;;29.05;17.50;;;17.60;91.00;;;16.63;86.20;101208.28;5028112;28;20037;-75
2021/06/06 05:18:18;;;;;;;28.95;17.73;;;17.60;91.00;;;16.63;86.03;101208.28;5031468;28;20041;-76
2021/06/06 05:20:57;;;;;;;28.02;17.42;;;17.60;90.80;;;16.64;85.79;101209.97;5029508;28;20056;-76
2021/06/06 05:23:38;;;;;;;30.95;18.15;;;17.60;90.70;;;16.63;85.90;101216.53;5031292;28;20037;-76
2021/06/06 05:26:24;;;;;;;29.20;18.05;;;17.60;90.90;;;16.63;85.92;101213.78;5029672;28;20126;-75
2021/06/06 05:29:03;;;;;;;37.00;19.35;;;17.60;90.90;;;16.63;86.07;101216.53;5031005;28;20053;-76
2021/06/06 05:31:38;;;;;;;36.10;19.85;;;17.60;91.10;;;16.62;86.19;101220.34;5030776;28;20045;-76
2021/06/06 05:34:16;;;;;;;30.92;19.23;;;17.60;91.00;;;16.63;85.72;101216.53;5030911;28;20045;-76
2021/06/06 05:36:52;;;;;;;31.20;18.95;;;17.60;90.80;;;16.63;85.80;101216.53;5030903;28;20041;-76
2021/06/06 05:39:27;;;;;;;31.17;19.00;;;17.60;90.70;;;16.66;85.70;101226.25;5030750;28;20041;-76
2021/06/06 05:42:00;;;;;;;41.05;19.40;;;17.60;90.70;;;16.68;85.75;101222.25;5030729;28;20041;-76
2021/06/06 05:44:39;;;;;;;32.53;19.15;;;17.60;90.70;;;16.67;85.49;101222.44;5030883;28;20041;-76
2021/06/06 05:47:15;;;;;;;35.38;19.33;;;17.60;90.80;;;16.66;85.65;101220.75;5031181;28;20592;-76
2021/06/06 05:49:50;;;;;;;31.52;19.73;;;17.60;90.70;;;16.68;85.65;101214.00;5030255;28;20045;-76
2021/06/06 05:52:33;;;;;;;32.25;18.77;;;17.60;90.70;;;16.67;85.88;101215.03;5029146;28;20099;-75
2021/06/06 05:55:10;;;;;;;33.47;19.45;;;17.60;90.60;;;16.67;85.78;101220.53;5030513;28;20049;-76
2021/06/06 05:57:49;;;;;;;31.90;19.55;;;17.60;90.70;;;16.66;85.63;101221.63;5030472;28;20080;-76
2021/06/06 06:00:32;;;;;;;33.67;20.05;;;17.70;90.80;;;16.69;85.68;101225.84;5030064;28;20038;-76
2021/06/06 06:03:07;;;;;;;32.67;20.05;;;17.70;90.80;;;16.71;85.51;101227.31;5030405;28;20041;-76
2021/06/06 06:05:48;;;;;;;36.50;20.75;;;17.70;90.80;;;16.71;85.12;101238.31;5030052;28;20049;-76
2021/06/06 06:08:32;;;;;;;35.15;20.40;;;17.70;90.80;;;16.72;85.00;101226.28;5028869;28;20071;-76
2021/06/06 06:11:15;;;;;;;35.17;21.00;;;17.70;90.60;;;16.73;84.66;101224.38;5028516;28;20049;-75
2021/06/06 06:13:50;;;;;;;33.38;19.95;;;17.70;90.10;;;16.74;84.65;101224.16;5029639;28;20054;-75
2021/06/06 06:16:40;;;;;;;34.53;20.23;;;17.70;90.10;;;16.74;85.01;101224.16;5028728;28;20045;-76
2021/06/06 06:19:20;;;;;;;35.58;20.42;;;17.70;90.30;;;16.72;85.17;101220.78;5030114;28;20045;-76
2021/06/06 06:21:55;;;;;;;37.72;21.15;;;17.70;90.40;;;16.76;84.79;101226.72;5030052;28;20167;-76
2021/06/06 06:24:35;;;;;;;38.67;21.10;;;17.70;90.00;;;16.76;84.41;101233.03;5030134;28;20111;-75
2021/06/06 06:27:09;;;;;;;38.78;21.52;;;17.70;90.00;;;16.77;84.40;101225.63;5029824;28;20060;-76
2021/06/06 06:30:17;;;;;;;34.88;20.80;;;17.80;90.00;;;16.77;84.16;101229.25;5028202;28;20077;-75
2021/06/06 06:33:17;;;;;;;36.75;22.45;;;17.80;89.70;;;16.78;84.30;101238.34;5029837;28;20436;-76
2021/06/06 06:35:56;;;;;;;37.00;22.35;;;17.70;89.90;;;16.78;84.14;101236.44;5046396;22;20045;-85
2021/06/06 06:38:33;;;;;;;40.60;23.02;;;17.70;89.90;;;16.79;84.81;101243.63;4989027;28;20051;-81
2021/06/06 06:41:12;;;;;;;36.53;20.58;;;17.70;90.10;;;16.78;84.97;101239.19;4989650;28;20113;-85
2021/06/06 06:43:50;;;;;;;35.00;22.25;;;17.70;90.20;;;16.79;84.73;101246.38;4989015;28;20054;-82
2021/06/06 06:46:26;;;;;;;39.28;21.80;;;17.80;90.10;;;16.81;85.02;101240.66;4990269;28;20418;-83
2021/06/06 06:49:05;;;;;;;38.50;21.73;;;17.80;90.20;;;16.82;85.12;101236.91;4990418;28;20511;-83
2021/06/06 06:51:43;;;;;;;34.60;21.75;;;17.80;90.30;;;16.84;85.50;101242.19;4989946;28;20097;-83
2021/06/06 06:54:21;;;;;;;37.72;21.90;;;17.80;90.40;;;16.83;85.26;101243.22;4990287;28;20057;-83
2021/06/06 06:56:59;;;;;;;35.03;22.05;;;17.80;90.20;;;16.83;85.38;101238.59;4990005;28;20906;-82
2021/06/06 06:59:39;;;;;;;36.80;21.90;;;17.90;90.30;;;16.85;85.53;101235.63;4989924;28;20042;-83
2021/06/06 07:02:15;;;;;;;38.30;22.77;;;17.90;90.30;;;16.86;85.25;101237.31;4990083;28;20678;-83
2021/06/06 07:04:55;;;;;;;33.47;21.77;;;17.90;90.20;;;16.86;85.20;101243.66;4989987;28;20069;-83
2021/06/06 07:07:28;;;;;;;38.40;23.88;;;17.90;90.20;;;16.85;85.22;101235.63;4989785;28;20112;-84
2021/06/06 07:10:08;;;;;;;38.22;23.38;;;17.90;90.20;;;16.88;85.16;101243.47;4989530;28;20050;-85
2021/06/06 07:12:46;;;;;;;41.22;24.33;;;17.90;90.30;;;16.88;85.54;101248.97;4989769;28;20050;-82
2021/06/06 07:15:23;;;;;;;36.13;23.25;;;17.90;90.30;;;16.90;85.83;101249.59;4989672;28;20081;-79
2021/06/06 07:17:58;;;;;;;43.03;22.85;;;17.90;90.70;;;16.86;84.87;101242.81;4989555;28;20561;-79
2021/06/06 07:20:40;;;;;;;38.22;22.80;;;17.90;90.20;;;16.87;85.33;101255.50;4990932;28;20053;-79
2021/06/06 07:23:19;;;;;;;35.47;21.40;;;17.90;90.10;;;16.87;85.20;101245.38;5007829;28;20096;-79
2021/06/06 07:25:59;;;;;;;35.78;22.85;;;18.00;90.10;;;16.89;85.74;101248.75;5006564;28;20426;-78
2021/06/06 07:28:35;;;;;;;40.55;23.10;;;17.90;90.30;;;16.91;85.71;101251.31;5009189;28;20053;-82
2021/06/06 07:31:15;;;;;;;39.25;25.25;;;17.90;90.40;;;16.91;85.99;101252.16;5008755;28;20150;-82
2021/06/06 07:33:51;;;;;;;39.70;25.70;;;18.00;90.50;;;16.92;85.96;101253.81;5009092;28;20046;-84
2021/06/06 07:36:32;;;;;;;43.55;25.77;;;17.90;90.80;;;16.91;85.85;101256.81;5008854;28;20502;-82
2021/06/06 07:39:11;;;;;;;41.75;25.88;;;17.90;90.70;;;16.90;85.73;101255.09;5008603;28;20409;-81
2021/06/06 07:41:47;;;;;;;45.17;27.52;;;18.00;90.50;;;16.90;85.61;101249.59;5008278;28;20057;-82
2021/06/06 07:44:23;;;;;;;46.20;27.60;;;17.90;90.40;;;16.89;86.09;101250.66;5008887;28;20072;-82
2021/06/06 07:46:58;;;;;;;50.53;28.95;;;17.90;90.60;;;16.90;85.94;101246.84;5008777;28;20060;-82
2021/06/06 07:49:37;;;;;;;49.05;28.35;;;17.90;90.60;;;16.87;85.90;101250.00;5008679;28;20046;-82
2021/06/06 07:52:17;;;;;;;50.63;28.35;;;18.00;90.50;;;16.89;85.78;101248.75;5008830;28;20559;-82
2021/06/06 07:54:53;;;;;;;46.30;25.55;;;18.00;90.60;;;16.92;85.75;101251.06;5008790;28;20052;-82
2021/06/06 07:57:32;;;;;;;41.60;25.73;;;17.90;90.40;;;16.94;85.62;101245.38;5007364;28;20057;-82
2021/06/06 08:00:10;;;;;;;45.90;27.50;;;18.00;90.50;;;16.94;85.76;101254.47;5008486;28;20064;-82
2021/06/06 08:02:51;;;;;;;48.63;28.00;;;18.00;90.30;;;16.95;85.80;101252.59;5007670;28;20580;-82
2021/06/06 08:05:29;;;;;;;57.97;30.85;;;18.00;90.50;;;16.95;85.92;101255.34;5008612;28;20076;-82
2021/06/06 08:08:15;;;;;;;56.88;31.90;;;18.00;90.60;;;16.96;85.70;101259.75;5008562;28;20053;-81
2021/06/06 08:10:58;;;;;;;56.85;34.20;;;18.00;90.40;;;16.94;85.72;101257.22;5008484;28;20050;-81
2021/06/06 08:13:34;;;;;;;60.80;33.90;;;18.00;90.20;;;16.94;85.72;101251.72;5008537;28;20049;-81
2021/06/06 08:16:11;;;;;;;61.53;35.17;;;18.00;90.40;;;16.96;85.89;101246.00;5007072;28;20521;-81
2021/06/06 08:18:51;;;;;;;55.72;31.52;;;18.00;90.30;;;16.98;85.42;101249.38;5008614;28;20089;-83
2021/06/06 08:21:37;;;;;;;55.85;31.25;;;18.00;90.10;;;16.98;85.25;101255.75;5008182;28;20046;-81
2021/06/06 08:24:15;;;;;;;51.17;31.02;;;18.00;89.90;;;17.00;85.32;101252.78;5008735;28;20526;-80
2021/06/06 08:26:53;;;;;;;63.95;32.55;;;18.10;90.10;;;17.02;85.33;101261.69;5008371;28;20096;-81
2021/06/06 08:29:28;;;;;;;59.15;31.95;;;18.00;90.00;;;17.03;85.78;101266.13;5008245;28;20510;-79
2021/06/06 08:32:06;;;;;;;56.20;32.08;;;18.10;90.20;;;17.06;86.10;101253.84;4991688;28;20058;-79
2021/06/06 08:34:46;;;;;;;59.75;33.58;;;18.10;90.40;;;17.06;85.99;101257.47;4980116;28;20101;-79
2021/06/06 08:37:21;;;;;;;62.33;33.65;;;18.10;90.40;;;17.04;85.96;101259.56;4987042;28;20463;-79
2021/06/06 08:40:13;;;;;;;56.17;32.60;;;18.10;90.30;;;17.02;86.12;101258.94;4987485;28;20100;-79
2021/06/06 08:42:53;;;;;;;70.28;34.70;;;18.10;90.40;;;17.03;86.03;101251.53;4992135;28;20053;-79
2021/06/06 08:45:46;;;;;;;70.22;35.45;;;18.10;90.40;;;17.03;85.95;101260.63;4991944;28;20077;-79
2021/06/06 08:48:24;;;;;;;65.60;35.08;;;18.10;90.40;;;17.00;86.05;101261.03;4992170;28;20112;-79
2021/06/06 08:51:22;;;;;;;61.40;33.15;;;18.10;90.30;;;17.00;86.48;101261.03;4989673;28;20772;-79
2021/06/06 08:54:22;;;;;;;71.95;34.90;;;18.10;90.40;;;16.98;86.26;101261.25;4991859;28;20039;-79
2021/06/06 08:57:04;;;;;;;70.57;33.80;;;18.10;90.40;;;16.98;86.53;101257.63;4991696;28;20423;-79
2021/06/06 08:59:52;;;;;;;65.80;33.78;;;18.10;90.70;;;16.97;86.75;101261.47;4991708;28;20034;-79
2021/06/06 09:02:30;;;;;;;76.57;35.60;;;18.10;90.60;;;16.97;86.81;101266.97;4984505;28;20464;-79
2021/06/06 09:05:09;;;;;;;71.65;35.10;;;18.10;90.80;;;16.97;86.74;101273.31;4992029;28;20046;-79
2021/06/06 09:07:49;;;;;;;61.58;32.85;;;18.10;90.80;;;16.99;86.78;101270.34;4989864;28;20469;-79
2021/06/06 09:10:33;;;;;;;62.40;31.75;;;18.10;90.80;;;16.98;86.85;101271.38;4985818;28;20487;-79
2021/06/06 09:13:15;;;;;;;63.47;32.55;;;18.10;90.70;;;17.01;86.93;101279.25;4989950;28;20113;-79
2021/06/06 09:16:01;;;;;;;58.15;31.05;;;18.10;91.00;;;17.00;86.53;101278.41;4990447;28;20058;-79
2021/06/06 09:18:38;;;;;;;59.25;30.90;;;18.00;90.60;;;17.00;86.57;101280.28;4991786;28;20085;-79
2021/06/06 09:21:24;;;;;;;53.90;29.52;;;18.10;90.80;;;16.99;86.42;101278.59;4990373;28;20050;-79
2021/06/06 09:24:17;;;;;;;58.20;30.08;;;18.10;90.60;;;16.99;86.29;101286.84;4990396;28;20163;-79
2021/06/06 09:26:52;;;;;;;56.60;29.25;;;18.10;90.70;;;16.99;86.30;101284.09;4991706;28;20038;-79
2021/06/06 09:29:33;;;;;;;53.88;28.00;;;18.10;90.50;;;17.02;86.52;101280.94;4992588;28;20414;-78
2021/06/06 09:32:19;;;;;;;49.85;27.83;;;18.10;90.80;;;17.03;86.42;101288.13;4972494;28;20046;-78
2021/06/06 09:35:22;;;;;;;57.65;30.85;;;18.10;90.50;;;17.05;86.27;101291.50;4972350;28;20047;-77
2021/06/06 09:38:10;;;;;;;62.15;31.42;;;18.10;90.40;;;17.06;86.54;101289.59;4987307;28;20046;-77
2021/06/06 09:40:48;;;;;;;64.05;32.38;;;18.10;90.60;;;17.06;86.65;101292.34;4984028;28;20384;-78
2021/06/06 09:43:35;;;;;;;59.72;29.60;;;18.10;90.60;;;17.04;86.30;101284.34;4990374;28;20046;-77
2021/06/06 09:46:18;;;;;;;60.67;30.83;;;18.20;90.70;;;17.06;86.25;101292.34;4989151;28;20046;-76
2021/06/06 09:48:57;;;;;;;54.53;29.75;;;18.10;90.40;;;17.05;86.51;101286.00;4990070;28;20133;-79
2021/06/06 09:51:37;;;;;;;53.00;28.75;;;18.20;90.40;;;17.08;86.53;101285.59;5009857;28;20046;-80
2021/06/06 09:54:21;;;;;;;48.60;27.25;;;18.20;90.60;;;17.12;86.90;101283.28;5003148;28;20039;-80
2021/06/06 09:57:09;;;;;;;52.65;29.30;;;18.30;90.80;;;17.14;86.61;101290.25;4991142;28;20054;-79
2021/06/06 09:59:47;;;;;;;52.78;28.15;;;18.30;90.50;;;17.17;86.52;101287.09;4990927;28;20050;-80
2021/06/06 10:02:39;;;;;;;50.28;27.00;;;18.30;90.30;;;17.17;86.74;101280.72;4991019;28;20522;-79
2021/06/06 10:05:29;;;;;;;49.45;28.13;;;18.40;90.50;;;17.22;86.81;101285.63;4989810;28;20408;-79
2021/06/06 10:08:10;;;;;;;50.03;27.02;;;18.40;90.60;;;17.25;87.15;101279.69;4971610;28;20054;-79
2021/06/06 10:10:52;;;;;;;49.10;27.13;;;18.40;90.50;;;17.28;86.69;101287.53;4983773;28;20069;-80
2021/06/06 10:13:35;;;;;;;50.03;25.88;;;18.50;90.40;;;17.28;86.14;101287.53;4987808;28;20120;-79
2021/06/06 10:16:28;;;;;;;44.03;24.05;;;18.50;89.90;;;17.28;85.95;101287.53;4988094;28;20049;-79
2021/06/06 10:19:13;;;;;;;45.05;24.00;;;18.50;89.80;;;17.31;85.62;101295.38;4991410;28;20049;-79
2021/06/06 10:21:53;;;;;;;42.53;23.92;;;18.50;89.30;;;17.30;85.48;101294.50;5002191;28;20043;-79
2021/06/06 10:24:39;;;;;;;42.15;25.15;;;18.50;89.30;;;17.32;85.42;101299.81;4993228;28;20062;-79
2021/06/06 10:27:25;;;;;;;42.72;24.67;;;18.50;89.30;;;17.32;85.73;101297.06;4998492;28;20590;-79
2021/06/06 10:30:06;;;;;;;42.97;25.02;;;18.50;89.30;;;17.33;85.63;101298.75;5001634;28;20034;-79
2021/06/06 10:32:49;;;;;;;46.85;24.85;;;18.50;89.30;;;17.33;85.65;101304.25;4986807;28;20046;-79
2021/06/06 10:35:32;;;;;;;44.97;25.98;;;18.50;89.40;;;17.33;85.31;101304.25;4987461;28;20052;-79
2021/06/06 10:38:10;;;;;;;53.08;24.15;;;18.50;89.20;;;17.34;85.09;101297.69;4989357;28;20107;-79
2021/06/06 10:40:51;;;;;;;49.08;25.45;;;18.50;89.10;;;17.35;85.37;101302.16;4987931;28;20042;-79
2021/06/06 10:43:43;;;;;;;48.42;27.63;;;18.60;89.00;;;17.32;85.51;101302.56;4989082;28;20050;-80
2021/06/06 10:46:38;;;;;;;51.20;28.40;;;18.60;89.10;;;17.33;85.34;101307.00;4990127;28;20509;-78
2021/06/06 10:49:37;;;;;;;45.35;27.60;;;18.60;89.00;;;17.35;85.89;101310.41;4997941;28;20064;-79
2021/06/06 10:52:32;;;;;;;47.45;26.85;;;18.60;89.20;;;17.36;85.73;101298.31;4982044;28;20152;-79
2021/06/06 10:55:17;;;;;;;49.13;27.65;;;18.60;89.10;;;17.37;85.19;101303.63;4990146;28;20046;-79
2021/06/06 10:57:55;;;;;;;47.15;27.08;;;18.60;88.60;;;17.36;85.09;101298.31;4989930;28;20102;-79